createdAt,value
2019-05-02T00:01:21.555Z,40.78
2019-05-02T00:04:25.902Z,38.90
2019-05-02T00:07:30.338Z,41.45
2019-05-02T00:10:35.952Z,40.88
2019-05-02T00:13:40.186Z,40.78
2019-05-02T00:16:45.086Z,39.88
2019-05-02T00:19:51.287Z,40.38
2019-05-02T00:22:55.815Z,39.65
2019-05-02T00:26:00.225Z,42.15
2019-05-02T00:29:04.577Z,40.88
2019-05-02T00:32:08.940Z,43.05
2019-05-02T00:35:13.642Z,42.15
2019-05-02T00:38:17.905Z,42.55
2019-05-02T00:41:22.194Z,41.42
2019-05-02T00:44:26.441Z,41.90
2019-05-02T00:47:47.917Z,41.33
2019-05-02T00:50:52.534Z,42.25
2019-05-02T00:53:56.901Z,41.80
2019-05-02T00:57:01.110Z,41.58
2019-05-02T01:00:06.428Z,40.58
2019-05-02T01:03:11.076Z,43.02
2019-05-02T01:06:17.100Z,42.08
2019-05-02T01:09:21.402Z,40.33
2019-05-02T01:12:26.811Z,41.35
2019-05-02T01:15:31.433Z,40.92
2019-05-02T01:18:37.107Z,42.93
2019-05-02T01:21:41.791Z,41.00
2019-05-02T01:24:46.109Z,40.05
2019-05-02T01:28:12.634Z,40.38
2019-05-02T01:31:21.266Z,41.45
2019-05-02T01:34:49.092Z,41.30
2019-05-02T01:38:14.557Z,40.60
2019-05-02T01:41:18.878Z,40.15
2019-05-02T01:44:23.202Z,43.00
2019-05-02T01:47:29.157Z,42.50
2019-05-02T01:50:34.695Z,45.03
2019-05-02T01:53:39.123Z,45.35
2019-05-02T01:56:43.430Z,45.83
2019-05-02T01:59:47.802Z,45.17
2019-05-02T02:02:52.151Z,45.43
2019-05-02T02:05:56.421Z,44.42
2019-05-02T02:09:03.407Z,46.10
2019-05-02T02:12:09.853Z,48.42
2019-05-02T02:15:12.745Z,49.53
2019-05-02T02:18:22.266Z,50.52
2019-05-02T02:21:46.096Z,48.52
2019-05-02T02:25:09.332Z,49.40
2019-05-02T02:28:13.687Z,51.48
2019-05-02T02:31:20.377Z,52.03
2019-05-02T02:34:29.408Z,54.60
2019-05-02T02:37:30.632Z,53.55
2019-05-02T02:40:35.718Z,55.55
2019-05-02T02:43:40.200Z,57.73
2019-05-02T02:46:45.773Z,56.02
2019-05-02T02:49:55.859Z,54.77
2019-05-02T02:52:56.137Z,56.68
2019-05-02T02:56:03.774Z,57.73
2019-05-02T02:59:07.747Z,56.18
2019-05-02T03:02:12.345Z,55.25
2019-05-02T03:05:18.968Z,57.43
2019-05-02T03:08:23.029Z,57.67
2019-05-02T03:11:29.945Z,57.27
2019-05-02T03:14:41.006Z,61.20
2019-05-02T03:17:42.074Z,54.77
2019-05-02T03:20:46.358Z,56.23
2019-05-02T03:24:01.442Z,56.25
2019-05-02T03:26:58.401Z,58.42
2019-05-02T03:30:02.782Z,57.50
2019-05-02T03:33:11.614Z,60.52
2019-05-02T03:36:27.957Z,57.35
2019-05-02T03:39:19.163Z,60.48
2019-05-02T03:42:23.485Z,61.15
2019-05-02T03:45:32.341Z,61.95
2019-05-02T03:48:34.039Z,59.80
2019-05-02T03:51:38.224Z,61.48
2019-05-02T03:54:50.155Z,60.48
2019-05-02T03:57:48.546Z,62.33
2019-05-02T04:01:00.359Z,59.42
2019-05-02T04:03:58.785Z,65.28
2019-05-02T04:07:04.072Z,66.17
2019-05-02T04:10:13.381Z,69.85
2019-05-02T04:13:15.246Z,66.75
2019-05-02T04:16:20.494Z,69.77
2019-05-02T04:19:28.683Z,67.97
2019-05-02T04:22:31.906Z,70.62
2019-05-02T04:25:36.743Z,58.70
2019-05-02T04:28:45.451Z,60.20
2019-05-02T04:31:46.960Z,55.58
2019-05-02T04:34:55.786Z,56.23
2019-05-02T04:37:59.092Z,62.48
2019-05-02T04:41:03.178Z,60.78
2019-05-02T04:44:09.130Z,64.87
2019-05-02T04:47:17.436Z,65.50
2019-05-02T04:50:25.027Z,65.87
2019-05-02T04:53:36.664Z,67.17
2019-05-02T04:56:32.260Z,62.88
2019-05-02T04:59:39.223Z,67.92
2019-05-02T05:02:42.485Z,63.52
2019-05-02T05:05:48.255Z,65.97
2019-05-02T05:08:52.712Z,68.67
2019-05-02T05:11:58.953Z,70.42
2019-05-02T05:15:07.869Z,70.55
2019-05-02T05:18:14.403Z,74.75
2019-05-02T05:21:18.113Z,75.90
2019-05-02T05:24:38.555Z,76.57
2019-05-02T05:27:41.316Z,76.28
2019-05-02T05:31:04.726Z,75.60
2019-05-02T05:34:09.889Z,76.07
2019-05-02T05:37:14.469Z,79.17
2019-05-02T05:40:22.582Z,79.12
2019-05-02T05:43:24.896Z,77.35
2019-05-02T05:46:33.378Z,78.20
2019-05-02T05:49:37.434Z,79.00
2019-05-02T05:52:42.534Z,78.75
2019-05-02T05:55:47.442Z,78.97
2019-05-02T05:58:52.599Z,80.62
2019-05-02T06:01:57.920Z,79.77
2019-05-02T06:05:03.909Z,80.90
2019-05-02T06:08:09.486Z,81.02
2019-05-02T06:11:14.966Z,80.60
2019-05-02T06:14:24.955Z,80.28
2019-05-02T06:17:28.663Z,81.78
2019-05-02T06:20:33.433Z,80.55
2019-05-02T06:23:41.260Z,78.97
2019-05-02T06:26:44.801Z,74.25
2019-05-02T06:29:51.130Z,80.55
2019-05-02T06:32:57.007Z,78.62
2019-05-02T06:36:03.015Z,75.22
2019-05-02T06:39:08.548Z,78.33
2019-05-02T06:42:13.359Z,74.17
2019-05-02T06:45:18.800Z,74.30
2019-05-02T06:48:23.334Z,75.78
2019-05-02T06:51:28.230Z,71.53
2019-05-02T06:54:34.239Z,68.45
2019-05-02T06:57:38.704Z,69.30
2019-05-02T07:00:56.371Z,59.48
2019-05-02T07:03:55.474Z,56.80
2019-05-02T07:07:00.364Z,62.40
2019-05-02T07:10:07.329Z,61.65
2019-05-02T07:13:15.115Z,63.95
2019-05-02T07:16:38.797Z,62.80
2019-05-02T07:19:48.815Z,62.30
2019-05-02T07:22:55.082Z,63.35
2019-05-02T07:26:00.321Z,63.73
2019-05-02T07:29:05.799Z,64.92
2019-05-02T07:32:10.855Z,68.12
2019-05-02T07:35:19.223Z,64.75
2019-05-02T07:38:25.562Z,69.17
2019-05-02T07:41:28.928Z,66.22
2019-05-02T07:44:34.501Z,67.70
2019-05-02T07:47:40.371Z,67.75
2019-05-02T07:50:46.462Z,70.75
2019-05-02T07:53:55.245Z,67.42
2019-05-02T07:56:58.630Z,66.20
2019-05-02T08:00:03.394Z,67.03
2019-05-02T08:03:09.848Z,70.08
2019-05-02T08:06:14.308Z,65.83
2019-05-02T08:09:21.787Z,65.57
2019-05-02T08:12:26.319Z,64.40
2019-05-02T08:15:32.357Z,62.38
2019-05-02T08:18:36.944Z,53.25
2019-05-02T08:21:43.451Z,60.15
2019-05-02T08:24:49.075Z,55.92
2019-05-02T08:27:58.855Z,54.27
2019-05-02T08:31:03.769Z,48.28
2019-05-02T08:34:14.680Z,50.23
2019-05-02T08:37:16.071Z,51.13
2019-05-02T08:40:20.792Z,50.88
2019-05-02T08:43:25.280Z,46.75
2019-05-02T08:46:30.170Z,47.40
2019-05-02T08:49:34.606Z,48.58
2019-05-02T08:52:42.762Z,50.03
2019-05-02T08:55:48.241Z,49.95
2019-05-02T08:58:53.456Z,44.90
2019-05-02T09:01:57.900Z,41.53
2019-05-02T09:05:04.599Z,43.73
2019-05-02T09:08:09.350Z,44.03
2019-05-02T09:11:15.889Z,43.80
2019-05-02T09:14:21.665Z,43.28
2019-05-02T09:17:36.016Z,43.83
2019-05-02T09:20:33.423Z,44.80
2019-05-02T09:23:41.118Z,44.00
2019-05-02T09:26:44.799Z,44.48
2019-05-02T09:29:51.828Z,43.33
2019-05-02T09:32:57.231Z,39.55
2019-05-02T09:36:04.042Z,40.12
2019-05-02T09:39:11.856Z,41.53
2019-05-02T09:42:19.086Z,39.92
2019-05-02T09:45:35.489Z,39.08
2019-05-02T09:48:34.723Z,39.40
2019-05-02T09:51:39.263Z,37.50
2019-05-02T09:54:46.086Z,36.20
2019-05-02T09:57:51.904Z,35.58
2019-05-02T10:01:27.861Z,37.17
2019-05-02T10:04:32.658Z,37.08
2019-05-02T10:07:37.133Z,40.28
2019-05-02T10:10:45.863Z,40.48
2019-05-02T10:13:48.356Z,40.73
2019-05-02T10:16:53.156Z,41.75
2019-05-02T10:19:58.308Z,41.92
2019-05-02T10:23:03.161Z,41.13
2019-05-02T10:26:07.883Z,42.35
2019-05-02T10:29:12.991Z,40.03
2019-05-02T10:32:17.503Z,40.70
2019-05-02T10:35:28.084Z,40.43
2019-05-02T10:38:32.618Z,42.55
2019-05-02T10:41:39.649Z,43.70
2019-05-02T10:44:43.814Z,42.53
2019-05-02T10:47:48.297Z,43.68
2019-05-02T10:50:53.900Z,45.33
2019-05-02T10:53:58.566Z,47.05
2019-05-02T10:57:03.975Z,47.15
2019-05-02T11:00:12.110Z,49.93
2019-05-02T11:03:26.399Z,51.88
2019-05-02T11:06:32.440Z,56.08
2019-05-02T11:09:37.106Z,58.45
2019-05-02T11:12:50.082Z,61.60
2019-05-02T11:16:19.318Z,65.65
2019-05-02T11:19:52.632Z,67.17
2019-05-02T11:22:57.255Z,66.62
2019-05-02T11:26:01.824Z,66.55
2019-05-02T11:29:07.158Z,66.15
2019-05-02T11:32:12.810Z,70.70
2019-05-02T11:35:33.059Z,71.30
2019-05-02T11:39:13.371Z,70.97
2019-05-02T11:42:05.381Z,69.70
2019-05-02T11:45:12.077Z,70.17
2019-05-02T11:48:19.788Z,70.95
2019-05-02T11:51:23.976Z,70.52
2019-05-02T11:54:28.539Z,69.55
2019-05-02T11:57:33.580Z,69.87
2019-05-02T12:00:45.354Z,70.30
2019-05-02T12:03:52.439Z,71.90
2019-05-02T12:07:01.154Z,74.37
2019-05-02T12:10:04.694Z,76.50
2019-05-02T12:13:15.763Z,71.72
2019-05-02T12:16:17.768Z,71.00
2019-05-02T12:19:22.934Z,69.05
2019-05-02T12:22:27.513Z,69.25
2019-05-02T12:25:32.834Z,64.92
2019-05-02T12:28:38.120Z,61.63
2019-05-02T12:31:42.831Z,61.50
2019-05-02T12:34:49.385Z,56.80
2019-05-02T12:37:55.342Z,61.42
2019-05-02T12:40:59.891Z,59.45
2019-05-02T12:44:05.365Z,55.75
2019-05-02T12:47:11.761Z,56.53
2019-05-02T12:50:16.464Z,56.92
2019-05-02T12:53:21.973Z,52.53
2019-05-02T12:56:26.803Z,53.02
2019-05-02T12:59:32.192Z,56.37
2019-05-02T13:02:55.760Z,53.13
2019-05-02T13:06:00.343Z,55.90
2019-05-02T13:09:12.846Z,57.83
2019-05-02T13:12:23.313Z,51.48
2019-05-02T13:15:27.994Z,45.90
2019-05-02T13:18:36.929Z,50.30
2019-05-02T13:21:50.282Z,47.88
2019-05-02T13:24:56.330Z,51.37
2019-05-02T13:28:01.971Z,45.12
2019-05-02T13:31:42.724Z,46.30
2019-05-02T13:34:55.495Z,46.58
2019-05-02T13:38:02.738Z,49.13
2019-05-02T13:41:07.506Z,50.80
2019-05-02T13:44:14.078Z,53.05
2019-05-02T13:47:21.840Z,48.65
2019-05-02T13:50:27.667Z,47.27
2019-05-02T13:53:32.787Z,50.23
2019-05-02T13:56:52.365Z,46.70
2019-05-02T13:59:56.322Z,46.63
2019-05-02T14:03:02.886Z,47.10
2019-05-02T14:06:07.491Z,41.95
2019-05-02T14:09:44.023Z,46.00
2019-05-02T14:12:59.970Z,41.60
2019-05-02T14:16:04.704Z,44.38
2019-05-02T14:19:12.474Z,42.00
2019-05-02T14:22:16.662Z,40.92
2019-05-02T14:25:22.304Z,35.63
2019-05-02T14:28:31.206Z,37.23
2019-05-02T14:31:33.224Z,38.00
2019-05-02T14:34:48.515Z,36.93
2019-05-02T14:38:09.854Z,28.52
2019-05-02T14:41:17.212Z,24.10
2019-05-02T14:44:23.294Z,24.35
2019-05-02T14:47:28.047Z,24.87
2019-05-02T14:50:36.550Z,22.60
2019-05-02T14:53:38.949Z,21.68
2019-05-02T14:56:58.832Z,21.87
2019-05-02T15:00:03.810Z,23.50
2019-05-02T15:03:08.382Z,23.35
2019-05-02T15:06:12.843Z,24.40
2019-05-02T15:09:22.656Z,25.30
2019-05-02T15:12:23.849Z,26.87
2019-05-02T15:15:33.952Z,27.77
2019-05-02T15:18:37.221Z,27.00
2019-05-02T15:21:47.031Z,28.32
2019-05-02T15:24:50.414Z,28.25
2019-05-02T15:27:59.924Z,26.50
2019-05-02T15:31:07.172Z,24.77
2019-05-02T15:34:26.831Z,24.50
2019-05-02T15:37:35.633Z,25.88
2019-05-02T15:40:47.312Z,22.32
2019-05-02T15:43:49.091Z,22.02
2019-05-02T15:46:52.415Z,21.57
2019-05-02T15:49:56.944Z,22.00
2019-05-02T15:53:25.090Z,20.82
2019-05-02T15:57:00.307Z,21.20
2019-05-02T16:00:01.538Z,21.02
2019-05-02T16:03:05.861Z,22.02
2019-05-02T16:06:16.470Z,23.02
2019-05-02T16:09:21.501Z,24.07
2019-05-02T16:12:27.201Z,25.43
2019-05-02T16:15:32.616Z,23.55
2019-05-02T16:18:40.937Z,17.52
2019-05-02T16:21:49.260Z,18.05
2019-05-02T16:24:56.411Z,17.55
2019-05-02T16:28:02.732Z,17.45
2019-05-02T16:31:09.503Z,18.40
2019-05-02T16:34:15.028Z,19.55
2019-05-02T16:37:19.977Z,16.55
2019-05-02T16:40:29.817Z,16.02
2019-05-02T16:44:35.852Z,14.95
2019-05-02T16:47:42.369Z,14.83
2019-05-02T16:50:47.222Z,15.15
2019-05-02T16:54:04.916Z,17.07
2019-05-02T16:57:09.984Z,16.15
2019-05-02T17:04:03.200Z,17.27
2019-05-02T17:07:13.600Z,20.10
2019-05-02T17:10:29.532Z,21.17
2019-05-02T17:13:38.572Z,20.97
2019-05-02T17:17:26.524Z,20.20
2019-05-02T17:20:33.658Z,21.35
2019-05-02T17:23:56.442Z,23.38
2019-05-02T17:31:25.976Z,22.95
2019-05-02T17:34:35.057Z,24.02
2019-05-02T17:37:40.602Z,23.83
2019-05-02T17:41:07.949Z,23.90
2019-05-02T17:44:12.821Z,22.70
2019-05-02T17:47:38.140Z,25.02
2019-05-02T17:51:12.430Z,27.02
2019-05-02T17:54:17.548Z,29.70
2019-05-02T17:57:23.252Z,30.25
2019-05-02T18:00:29.417Z,37.23
2019-05-02T18:03:35.313Z,39.92
2019-05-02T18:06:41.689Z,38.73
2019-05-02T18:09:48.632Z,39.13
2019-05-02T18:12:56.710Z,38.90
2019-05-02T18:15:59.482Z,38.53
2019-05-02T18:19:04.609Z,41.60
2019-05-02T18:22:22.471Z,39.20
2019-05-02T18:25:16.249Z,40.55
2019-05-02T18:28:26.137Z,40.25
2019-05-02T18:31:28.515Z,41.13
2019-05-02T18:34:33.037Z,39.03
2019-05-02T18:41:06.186Z,37.85
2019-05-02T18:44:42.028Z,38.88
2019-05-02T18:47:46.896Z,37.80
2019-05-02T18:50:52.675Z,38.75
2019-05-02T18:53:57.831Z,38.25
2019-05-02T18:57:26.004Z,40.25
2019-05-02T19:00:35.502Z,43.38
2019-05-02T19:03:39.437Z,45.58
2019-05-02T19:06:46.859Z,47.20
2019-05-02T19:09:53.971Z,46.18
2019-05-02T19:13:01.053Z,46.75
2019-05-02T19:16:04.841Z,48.25
2019-05-02T19:19:09.360Z,50.00
2019-05-02T19:22:17.055Z,49.20
2019-05-02T19:25:20.102Z,48.28
2019-05-02T19:28:36.808Z,48.73
2019-05-02T19:31:46.153Z,44.18
2019-05-02T19:34:50.760Z,40.00
2019-05-02T19:37:55.497Z,38.02
2019-05-02T19:41:05.465Z,36.10
2019-05-02T19:44:06.350Z,30.02
2019-05-02T19:47:15.634Z,28.73
2019-05-02T19:50:41.632Z,29.25
2019-05-02T19:53:44.871Z,28.83
2019-05-02T19:56:49.779Z,27.98
2019-05-02T19:59:57.176Z,28.12
2019-05-02T20:03:02.633Z,26.85
2019-05-02T20:06:07.090Z,27.90
2019-05-02T20:09:11.813Z,30.12
2019-05-02T20:12:16.460Z,32.05
2019-05-02T20:15:26.834Z,29.32
2019-05-02T20:18:28.250Z,27.52
2019-05-02T20:22:02.817Z,26.85
2019-05-02T20:25:05.902Z,25.65
2019-05-02T20:28:11.147Z,25.45
2019-05-02T20:31:16.390Z,26.33
2019-05-02T20:34:22.209Z,26.50
2019-05-02T20:37:27.006Z,26.70
2019-05-02T20:40:32.615Z,27.17
2019-05-02T20:43:37.141Z,27.25
2019-05-02T20:46:42.126Z,27.58
2019-05-02T20:49:47.977Z,28.38
2019-05-02T20:52:52.636Z,29.70
2019-05-02T20:55:57.180Z,27.70
2019-05-02T20:59:02.311Z,26.02
2019-05-02T21:02:08.302Z,26.30
2019-05-02T21:05:19.737Z,25.57
2019-05-02T21:08:43.660Z,25.10
2019-05-02T21:11:53.126Z,25.27
2019-05-02T21:14:57.722Z,23.95
2019-05-02T21:18:03.039Z,23.15
2019-05-02T21:21:07.630Z,21.25
2019-05-02T21:24:12.226Z,20.40
2019-05-02T21:27:17.300Z,20.50
2019-05-02T21:30:32.245Z,19.12
2019-05-02T21:33:42.794Z,20.08
2019-05-02T21:36:47.304Z,19.35
2019-05-02T21:39:52.139Z,19.95
2019-05-02T21:42:56.857Z,20.00
2019-05-02T21:46:02.378Z,20.50
2019-05-02T21:49:07.213Z,19.65
2019-05-02T21:52:36.486Z,18.15
2019-05-02T21:55:58.738Z,18.77
2019-05-02T21:59:12.289Z,17.42
2019-05-02T22:02:19.634Z,19.00
2019-05-02T22:05:25.544Z,16.37
2019-05-02T22:08:32.168Z,18.12
2019-05-02T22:11:36.372Z,16.90
2019-05-02T22:14:42.139Z,18.45
2019-05-02T22:18:06.274Z,17.57
2019-05-02T22:21:12.295Z,17.35
2019-05-02T22:24:16.987Z,15.95
2019-05-02T22:27:22.338Z,16.45
2019-05-02T22:30:26.897Z,16.35
2019-05-02T22:33:32.804Z,16.50
2019-05-02T22:36:37.845Z,16.15
2019-05-02T22:39:56.120Z,15.13
2019-05-02T22:43:01.942Z,15.95
2019-05-02T22:46:08.549Z,16.02
2019-05-02T22:49:14.912Z,15.20
2019-05-02T22:52:21.781Z,15.63
2019-05-02T22:55:26.588Z,15.98
2019-05-02T22:58:32.672Z,15.48
2019-05-02T23:01:38.607Z,14.98
2019-05-02T23:04:44.533Z,14.60
2019-05-02T23:07:49.033Z,15.88
2019-05-02T23:10:54.122Z,14.53
2019-05-02T23:13:58.782Z,14.95
2019-05-02T23:17:03.589Z,14.60
2019-05-02T23:20:09.016Z,14.98
2019-05-02T23:23:13.586Z,16.00
2019-05-02T23:26:52.307Z,18.23
2019-05-02T23:29:56.991Z,19.37
2019-05-02T23:33:23.416Z,18.98
2019-05-02T23:36:27.591Z,20.30
2019-05-02T23:39:32.400Z,19.42
2019-05-02T23:42:41.738Z,19.42
2019-05-02T23:45:46.785Z,19.85
2019-05-02T23:48:52.648Z,21.80
2019-05-02T23:51:57.616Z,21.23
2019-05-02T23:55:02.998Z,22.17
2019-05-02T23:58:08.843Z,21.73
